LYBE/BEG METAR and TAF weather

Enter ICAO airport designator
Station Type Date Time Source
LYBE METAR 2017/08/21 23:00 UTC NOAA

LYBE 212300Z 30005KT CAVOK 14/10 Q1019 NOSIG


Station Type Date Time Source
LYBE Decoded METAR 2017/08/21 23:00 UTC NOAA

Beograd / Surcin, Serbia and Montenegro (LYBE) 44-49N 020-17E 99M
Aug 21, 2017 - 07:00 PM EDT / 2017.08.21 2300 UTC
Wind: from the WNW (300 degrees) at 6 MPH (5 KT):0
Visibility: greater than 7 mile(s):0
Temperature: 57 F (14 C)
Dew Point: 50 F (10 C)
Relative Humidity: 76%
Pressure (altimeter): 30.09 in. Hg (1019 hPa)
ob: LYBE 212300Z 30005KT CAVOK 14/10 Q1019 NOSIG
cycle: 23

Station Type Date Time Source
LYBE TAF 2017/08/21 18:21 UTC NOAA

TAF LYBE 211700Z 2118/2218 34007KT CAVOK TX26/2213Z TN13/2204Z


Example: see airport list